Time;durP1;ratioP1;P1;durP2;ratioP2;P2;SDS_P1;SDS_P2;PMS_P1;PMS_P2;Temp;Humidity;BMP_temperature;BMP_pressure;BME280_temperature;BME280_humidity;BME280_pressure;Samples;Min_cycle;Max_cycle;Signal;HPM_P1;HPM_P2
2022/01/27 00:00:34;;;;;;;41.97;16.35;;;;;;;;;;4988785;28;106940;-71
2022/01/27 00:05:34;;;;;;;38.15;16.33;;;;;;;;;;4989883;28;108621;-70
2022/01/27 00:13:16;;;;;;;39.65;16.55;;;;;;;;;;4971158;28;109166;-69
2022/01/27 00:15:44;;;;;;;39.92;16.25;;;;;;;;;;4987524;28;106352;-68
2022/01/27 00:18:30;;;;;;;40.20;17.45;;;;;;;;;;4975797;28;109084;-69
2022/01/27 00:20:56;;;;;;;37.50;16.85;;;;;;;;;;4972384;28;106030;-69
2022/01/27 00:23:23;;;;;;;42.47;16.90;;;;;;;;;;4976504;28;107074;-68
2022/01/27 00:25:49;;;;;;;37.85;17.08;;;;;;;;;;4983218;28;106200;-69
2022/01/27 00:28:16;;;;;;;38.10;17.83;;;;;;;;;;4987930;28;105679;-69
2022/01/27 00:30:42;;;;;;;41.15;16.63;;;;;;;;;;4989596;28;105964;-69
2022/01/27 00:33:08;;;;;;;38.38;15.98;;;;;;;;;;4979713;28;106656;-69
2022/01/27 00:35:35;;;;;;;34.72;15.88;;;;;;;;;;4991186;28;106177;-68
2022/01/27 00:38:02;;;;;;;33.60;16.20;;;;;;;;;;4990556;28;106066;-69
2022/01/27 00:40:28;;;;;;;39.33;16.05;;;;;;;;;;4990309;28;107607;-69
2022/01/27 00:42:55;;;;;;;39.08;17.27;;;;;;;;;;4990597;28;107719;-70
2022/01/27 00:45:23;;;;;;;38.08;16.52;;;;;;;;;;4988142;28;106198;-68
2022/01/27 00:47:50;;;;;;;39.97;16.70;;;;;;;;;;4988852;28;108970;-69
2022/01/27 00:50:18;;;;;;;49.20;17.00;;;;;;;;;;4971529;28;107027;-68
2022/01/27 00:52:49;;;;;;;34.15;15.90;;;;;;;;;;4969622;28;108123;-69
2022/01/27 00:55:16;;;;;;;39.70;17.15;;;;;;;;;;4986659;28;106434;-69
2022/01/27 01:00:43;;;;;;;36.80;16.48;;;;;;;;;;4983906;28;107127;-69
2022/01/27 01:03:24;;;;;;;42.20;16.25;;;;;;;;;;4976267;28;106282;-69
2022/01/27 01:06:33;;;;;;;37.70;16.30;;;;;;;;;;4985041;28;106854;-68
2022/01/27 01:11:35;;;;;;;35.92;15.48;;;;;;;;;;4989837;28;107269;-70
2022/01/27 01:29:24;;;;;;;38.88;16.02;;;;;;;;;;4988313;28;106862;-68
2022/01/27 01:30:33;;;;;;;39.63;15.93;;;;;;;;;;4962929;28;107941;-68
2022/01/27 01:33:03;;;;;;;39.78;15.98;;;;;;;;;;4979286;28;106683;-69
2022/01/27 01:35:48;;;;;;;44.38;16.58;;;;;;;;;;4984493;28;106336;-69
2022/01/27 01:38:17;;;;;;;38.25;15.95;;;;;;;;;;4978311;28;107218;-69
2022/01/27 01:40:45;;;;;;;40.03;15.50;;;;;;;;;;4985408;28;106789;-69
2022/01/27 01:43:11;;;;;;;37.95;14.90;;;;;;;;;;4987561;28;108185;-70
2022/01/27 01:45:38;;;;;;;42.17;16.95;;;;;;;;;;4988440;28;107072;-70
2022/01/27 01:48:04;;;;;;;40.30;16.98;;;;;;;;;;4986667;28;106774;-70
2022/01/27 01:50:31;;;;;;;33.53;16.05;;;;;;;;;;4972564;28;109036;-69
2022/01/27 01:52:57;;;;;;;37.95;16.48;;;;;;;;;;4986467;28;106389;-69
2022/01/27 01:55:24;;;;;;;41.83;16.98;;;;;;;;;;4964002;28;110659;-69
2022/01/27 01:57:51;;;;;;;36.20;15.50;;;;;;;;;;4988454;28;106188;-68
2022/01/27 02:00:17;;;;;;;39.78;16.63;;;;;;;;;;4960372;28;107111;-68
2022/01/27 02:02:44;;;;;;;36.55;16.95;;;;;;;;;;4969503;28;109338;-68
2022/01/27 02:05:10;;;;;;;43.17;17.08;;;;;;;;;;4984829;28;107616;-67
2022/01/27 02:07:53;;;;;;;38.92;16.67;;;;;;;;;;4988747;28;107626;-70
2022/01/27 02:18:16;;;;;;;38.00;16.63;;;;;;;;;;5027122;27;107046;-63
2022/01/27 02:20:43;;;;;;;44.08;16.35;;;;;;;;;;5028976;27;107834;-62
2022/01/27 02:23:10;;;;;;;49.70;17.83;;;;;;;;;;5025336;27;107004;-63
2022/01/27 02:25:36;;;;;;;36.08;16.20;;;;;;;;;;5029207;27;106410;-62
2022/01/27 02:28:03;;;;;;;44.55;16.55;;;;;;;;;;5028207;27;106370;-64
2022/01/27 02:30:30;;;;;;;38.60;15.25;;;;;;;;;;5028395;27;107431;-63
2022/01/27 02:32:58;;;;;;;35.13;15.93;;;;;;;;;;5031100;27;105788;-62
2022/01/27 02:35:27;;;;;;;35.75;16.25;;;;;;;;;;5028295;27;107277;-63
2022/01/27 02:37:54;;;;;;;42.28;16.85;;;;;;;;;;5027109;27;106160;-63
2022/01/27 02:40:34;;;;;;;47.35;18.83;;;;;;;;;;5029943;27;106801;-63
2022/01/27 02:43:02;;;;;;;43.15;17.75;;;;;;;;;;5027411;27;107531;-63
2022/01/27 02:45:47;;;;;;;40.13;17.17;;;;;;;;;;5026786;27;106256;-62
2022/01/27 02:48:13;;;;;;;38.20;17.30;;;;;;;;;;5025245;27;106787;-63
2022/01/27 02:50:39;;;;;;;39.75;17.42;;;;;;;;;;5017829;27;106728;-63
2022/01/27 02:53:06;;;;;;;35.90;16.25;;;;;;;;;;5015173;27;106000;-63
2022/01/27 02:55:33;;;;;;;38.45;17.13;;;;;;;;;;5020671;27;106976;-63
2022/01/27 02:57:59;;;;;;;42.70;18.38;;;;;;;;;;5023406;27;105921;-63
2022/01/27 03:00:26;;;;;;;40.33;17.83;;;;;;;;;;5027422;27;106296;-62
2022/01/27 03:02:53;;;;;;;35.83;16.35;;;;;;;;;;5025533;27;107360;-63
2022/01/27 03:05:19;;;;;;;41.00;17.10;;;;;;;;;;5027028;27;106509;-64
2022/01/27 03:07:48;;;;;;;36.22;16.67;;;;;;;;;;5027689;27;106520;-63
2022/01/27 03:10:16;;;;;;;39.33;16.60;;;;;;;;;;5026715;27;106191;-63
2022/01/27 03:12:43;;;;;;;41.05;17.13;;;;;;;;;;5025858;27;106745;-63
2022/01/27 03:15:11;;;;;;;39.13;15.77;;;;;;;;;;5020792;27;107568;-64
2022/01/27 03:17:38;;;;;;;47.72;17.95;;;;;;;;;;5028332;27;106385;-63
2022/01/27 03:20:05;;;;;;;30.63;14.95;;;;;;;;;;5023465;27;108186;-63
2022/01/27 03:22:32;;;;;;;43.42;17.23;;;;;;;;;;5026872;27;108899;-62
2022/01/27 03:24:58;;;;;;;42.05;16.75;;;;;;;;;;5026711;27;105766;-63
2022/01/27 03:27:26;;;;;;;44.40;17.50;;;;;;;;;;5025924;27;106814;-63
2022/01/27 03:29:54;;;;;;;37.77;15.83;;;;;;;;;;5023933;27;107662;-64
2022/01/27 03:32:20;;;;;;;36.97;15.40;;;;;;;;;;5026282;27;106122;-62
2022/01/27 03:34:47;;;;;;;37.80;16.60;;;;;;;;;;5027961;27;107384;-62
2022/01/27 03:37:14;;;;;;;44.30;17.98;;;;;;;;;;5023164;27;106327;-62
2022/01/27 03:39:42;;;;;;;43.47;17.60;;;;;;;;;;5032272;27;105975;-64
2022/01/27 03:42:09;;;;;;;41.15;18.20;;;;;;;;;;5025125;27;108379;-65
2022/01/27 03:44:36;;;;;;;43.72;18.08;;;;;;;;;;5026627;27;107844;-64
2022/01/27 03:47:02;;;;;;;43.70;16.92;;;;;;;;;;5026419;27;106640;-64
2022/01/27 03:49:29;;;;;;;37.55;16.33;;;;;;;;;;5025137;27;107120;-64
2022/01/27 03:51:59;;;;;;;46.70;19.42;;;;;;;;;;5026927;27;105977;-64
2022/01/27 03:54:26;;;;;;;42.53;18.63;;;;;;;;;;5021638;27;106583;-63
2022/01/27 03:56:52;;;;;;;39.63;16.10;;;;;;;;;;5022955;27;106957;-62
2022/01/27 03:59:19;;;;;;;42.10;17.77;;;;;;;;;;5023352;27;106202;-62
2022/01/27 04:01:45;;;;;;;37.83;18.13;;;;;;;;;;5029870;27;106028;-64
2022/01/27 04:04:14;;;;;;;40.40;16.55;;;;;;;;;;5029939;27;107658;-62
2022/01/27 04:06:41;;;;;;;40.70;15.85;;;;;;;;;;5023839;27;107425;-64
2022/01/27 04:09:09;;;;;;;38.83;17.73;;;;;;;;;;5024087;27;107287;-65
2022/01/27 04:11:36;;;;;;;46.20;17.67;;;;;;;;;;5032119;27;105907;-63
2022/01/27 04:14:02;;;;;;;41.25;16.73;;;;;;;;;;5028186;27;106916;-64
2022/01/27 04:16:28;;;;;;;45.08;17.65;;;;;;;;;;5027519;27;107538;-64
2022/01/27 04:18:55;;;;;;;43.15;16.30;;;;;;;;;;5030752;27;105807;-64
2022/01/27 04:21:21;;;;;;;37.47;16.98;;;;;;;;;;5029532;27;107225;-62
2022/01/27 04:23:49;;;;;;;33.92;15.38;;;;;;;;;;5034051;27;106317;-62
2022/01/27 04:26:20;;;;;;;46.10;17.08;;;;;;;;;;5029100;27;107437;-64
2022/01/27 04:28:48;;;;;;;42.80;16.55;;;;;;;;;;5029848;27;107217;-64
2022/01/27 04:31:15;;;;;;;40.78;17.20;;;;;;;;;;5026356;27;106587;-63
2022/01/27 04:33:41;;;;;;;33.92;16.55;;;;;;;;;;5029996;27;106786;-64
2022/01/27 04:36:19;;;;;;;42.90;16.05;;;;;;;;;;5028698;27;107382;-65
2022/01/27 04:38:54;;;;;;;40.88;16.40;;;;;;;;;;5031381;27;106290;-64
2022/01/27 04:46:51;;;;;;;43.63;16.92;;;;;;;;;;5031154;27;106694;-64
2022/01/27 04:49:17;;;;;;;39.85;14.88;;;;;;;;;;5029331;27;108025;-63
2022/01/27 04:51:44;;;;;;;39.75;15.80;;;;;;;;;;5028517;27;105898;-64
2022/01/27 04:54:20;;;;;;;45.78;15.70;;;;;;;;;;5030404;27;106568;-63
2022/01/27 04:56:46;;;;;;;34.40;13.77;;;;;;;;;;5025628;27;107283;-64
2022/01/27 04:59:21;;;;;;;42.95;16.08;;;;;;;;;;5026351;27;106085;-64
2022/01/27 05:01:52;;;;;;;39.90;16.45;;;;;;;;;;5029443;27;106798;-64
2022/01/27 05:04:21;;;;;;;40.67;15.63;;;;;;;;;;5027855;27;107398;-64
2022/01/27 05:06:49;;;;;;;40.27;15.40;;;;;;;;;;5034596;27;107316;-64
2022/01/27 05:09:16;;;;;;;44.58;16.38;;;;;;;;;;5028439;27;107925;-64
2022/01/27 05:11:50;;;;;;;44.08;14.40;;;;;;;;;;5016738;27;107146;-62
2022/01/27 05:14:21;;;;;;;45.42;15.15;;;;;;;;;;5028375;27;106299;-64
2022/01/27 05:16:47;;;;;;;33.83;12.73;;;;;;;;;;5029976;27;106297;-64
2022/01/27 05:19:15;;;;;;;40.45;14.38;;;;;;;;;;5021097;27;105692;-62
2022/01/27 05:21:41;;;;;;;41.15;15.27;;;;;;;;;;5023456;27;106718;-63
2022/01/27 05:24:08;;;;;;;43.83;15.48;;;;;;;;;;5024608;27;107361;-64
2022/01/27 05:26:35;;;;;;;40.25;14.00;;;;;;;;;;5030797;27;105942;-62
2022/01/27 05:29:03;;;;;;;36.40;14.27;;;;;;;;;;5032730;27;107098;-63
2022/01/27 05:31:29;;;;;;;39.50;14.65;;;;;;;;;;5018319;27;106143;-63
2022/01/27 05:33:56;;;;;;;39.20;15.20;;;;;;;;;;5023167;27;106823;-63
2022/01/27 05:36:22;;;;;;;38.33;15.13;;;;;;;;;;5022541;27;107391;-62
2022/01/27 05:38:48;;;;;;;37.83;11.82;;;;;;;;;;5018023;27;106054;-63
2022/01/27 05:41:15;;;;;;;34.40;12.30;;;;;;;;;;5020758;27;106936;-63
2022/01/27 05:43:42;;;;;;;45.22;15.93;;;;;;;;;;5027319;27;106059;-63
2022/01/27 05:46:09;;;;;;;36.83;13.30;;;;;;;;;;5028089;27;106622;-63
2022/01/27 05:48:35;;;;;;;38.38;13.82;;;;;;;;;;5028487;27;106016;-63
2022/01/27 05:51:02;;;;;;;34.28;12.85;;;;;;;;;;5033319;27;106673;-63
2022/01/27 05:53:32;;;;;;;40.67;13.60;;;;;;;;;;5022883;27;106623;-63
2022/01/27 05:55:58;;;;;;;;;;;;;;;;;;5020138;27;106402;-63
2022/01/27 05:58:25;;;;;;;37.25;13.18;;;;;;;;;;5026913;27;122586;-63
2022/01/27 06:00:52;;;;;;;37.80;13.13;;;;;;;;;;5027966;27;106721;-62
2022/01/27 06:03:19;;;;;;;40.42;13.15;;;;;;;;;;5024858;27;107799;-64
2022/01/27 06:05:45;;;;;;;36.05;12.82;;;;;;;;;;5021123;27;106106;-63
2022/01/27 06:08:12;;;;;;;37.47;13.25;;;;;;;;;;5027114;27;106818;-64
2022/01/27 06:10:38;;;;;;;35.80;12.43;;;;;;;;;;5022892;27;107326;-64
2022/01/27 06:13:05;;;;;;;34.92;12.63;;;;;;;;;;5030737;27;106153;-64
2022/01/27 06:15:31;;;;;;;35.47;12.43;;;;;;;;;;5028387;27;106386;-64
2022/01/27 06:17:58;;;;;;;40.55;12.48;;;;;;;;;;5029178;27;106346;-63
2022/01/27 06:20:25;;;;;;;39.83;12.80;;;;;;;;;;5028683;27;107709;-64
2022/01/27 06:22:59;;;;;;;34.58;11.82;;;;;;;;;;5028065;27;106186;-63
2022/01/27 06:25:31;;;;;;;34.42;11.50;;;;;;;;;;5026756;27;105994;-64
2022/01/27 06:27:57;;;;;;;38.78;11.90;;;;;;;;;;5027636;27;107172;-63
2022/01/27 06:30:24;;;;;;;33.13;12.23;;;;;;;;;;5020197;27;106996;-64
2022/01/27 06:32:50;;;;;;;35.83;11.77;;;;;;;;;;5027457;27;105997;-64
2022/01/27 06:35:17;;;;;;;35.22;11.85;;;;;;;;;;5018932;27;107898;-64
2022/01/27 06:37:45;;;;;;;36.97;12.38;;;;;;;;;;5028106;27;106226;-66
2022/01/27 06:40:13;;;;;;;34.88;10.43;;;;;;;;;;5026600;27;106595;-65
2022/01/27 06:42:40;;;;;;;35.83;11.18;;;;;;;;;;5025053;27;106511;-64
2022/01/27 06:45:07;;;;;;;38.00;12.07;;;;;;;;;;5027103;27;107107;-66
2022/01/27 06:47:33;;;;;;;35.47;11.68;;;;;;;;;;5028192;27;106198;-64
2022/01/27 06:50:00;;;;;;;43.17;14.70;;;;;;;;;;5025564;27;107550;-64
2022/01/27 06:52:28;;;;;;;34.90;11.45;;;;;;;;;;5023552;27;107369;-64
2022/01/27 06:54:55;;;;;;;37.58;11.18;;;;;;;;;;5029844;27;106255;-64
2022/01/27 06:57:22;;;;;;;34.35;11.30;;;;;;;;;;5026966;27;106305;-63
2022/01/27 06:59:49;;;;;;;36.42;11.32;;;;;;;;;;5025002;27;108052;-64
2022/01/27 07:02:15;;;;;;;34.42;12.25;;;;;;;;;;5024382;27;106198;-64
2022/01/27 07:04:42;;;;;;;40.85;12.95;;;;;;;;;;5028253;27;105942;-64
2022/01/27 07:07:08;;;;;;;45.70;13.68;;;;;;;;;;5026076;27;106763;-65
2022/01/27 07:09:34;;;;;;;46.00;13.05;;;;;;;;;;5029118;27;107107;-64
2022/01/27 07:12:01;;;;;;;49.55;13.95;;;;;;;;;;5026616;27;106501;-64
2022/01/27 07:14:30;;;;;;;44.60;13.65;;;;;;;;;;5021839;27;107345;-64
2022/01/27 07:16:57;;;;;;;47.03;14.45;;;;;;;;;;5027948;27;107529;-63
2022/01/27 07:19:23;;;;;;;53.50;14.40;;;;;;;;;;5025037;27;106465;-63
2022/01/27 07:21:50;;;;;;;50.38;15.00;;;;;;;;;;5028860;27;107900;-64
2022/01/27 07:24:17;;;;;;;42.80;14.55;;;;;;;;;;5026988;27;106008;-64
2022/01/27 07:26:43;;;;;;;47.83;14.55;;;;;;;;;;5013398;27;106686;-64
2022/01/27 07:29:09;;;;;;;56.20;15.60;;;;;;;;;;5020882;27;107887;-65
2022/01/27 07:31:36;;;;;;;44.65;14.88;;;;;;;;;;5027832;27;108353;-64
2022/01/27 07:34:02;;;;;;;52.38;14.73;;;;;;;;;;5030590;27;108032;-63
2022/01/27 07:36:31;;;;;;;53.85;15.70;;;;;;;;;;5031440;27;107163;-63
2022/01/27 07:38:58;;;;;;;45.22;15.52;;;;;;;;;;5031970;27;106873;-63
2022/01/27 07:41:24;;;;;;;41.20;15.35;;;;;;;;;;5029241;27;107282;-63
2022/01/27 07:43:51;;;;;;;47.88;15.52;;;;;;;;;;5023826;27;106359;-63
2022/01/27 07:46:17;;;;;;;46.35;14.32;;;;;;;;;;5025865;27;106643;-63
2022/01/27 07:48:44;;;;;;;47.38;14.52;;;;;;;;;;5028016;27;107690;-64
2022/01/27 07:51:10;;;;;;;43.17;14.90;;;;;;;;;;5031464;27;106302;-65
2022/01/27 07:53:38;;;;;;;40.30;14.60;;;;;;;;;;5031013;27;106984;-66
2022/01/27 07:56:25;;;;;;;46.22;15.43;;;;;;;;;;5023045;27;108051;-66
2022/01/27 07:58:52;;;;;;;49.63;15.93;;;;;;;;;;5025482;27;106691;-64
2022/01/27 08:01:19;;;;;;;45.53;16.15;;;;;;;;;;5029083;27;106559;-64
2022/01/27 08:03:45;;;;;;;44.90;15.13;;;;;;;;;;5017083;27;106937;-64
2022/01/27 08:06:12;;;;;;;49.25;16.08;;;;;;;;;;5028052;27;106327;-63
2022/01/27 08:08:39;;;;;;;54.97;17.40;;;;;;;;;;5029466;27;107403;-63
2022/01/27 08:11:06;;;;;;;51.45;17.15;;;;;;;;;;5024055;27;107628;-63
2022/01/27 08:13:32;;;;;;;54.08;16.63;;;;;;;;;;5024672;27;107886;-63
2022/01/27 08:16:04;;;;;;;47.47;16.17;;;;;;;;;;5025974;27;107480;-64
2022/01/27 08:18:43;;;;;;;52.17;16.35;;;;;;;;;;5026038;27;106106;-64
2022/01/27 08:21:09;;;;;;;57.67;16.27;;;;;;;;;;5029861;27;106846;-64
2022/01/27 08:23:37;;;;;;;60.55;16.65;;;;;;;;;;5029068;27;107834;-63
2022/01/27 08:26:07;;;;;;;58.00;17.23;;;;;;;;;;5023827;27;106930;-65
2022/01/27 08:28:40;;;;;;;50.70;16.08;;;;;;;;;;5027522;27;107270;-64
2022/01/27 08:31:07;;;;;;;57.22;17.20;;;;;;;;;;5025279;27;106772;-64
2022/01/27 08:33:37;;;;;;;51.22;16.63;;;;;;;;;;5025084;27;106731;-63
2022/01/27 08:36:03;;;;;;;;;;;;;;;;;;5026087;27;107407;-65
2022/01/27 08:38:29;;;;;;;52.47;15.57;;;;;;;;;;5028004;27;121988;-64
2022/01/27 08:40:59;;;;;;;59.72;17.25;;;;;;;;;;5024324;27;106644;-66
2022/01/27 08:43:25;;;;;;;47.75;15.43;;;;;;;;;;5027607;27;107775;-66
2022/01/27 08:45:53;;;;;;;57.42;15.52;;;;;;;;;;5027235;27;107273;-65
2022/01/27 08:48:21;;;;;;;50.83;15.65;;;;;;;;;;5028204;27;106249;-63
2022/01/27 08:50:58;;;;;;;43.28;15.45;;;;;;;;;;5025559;27;107441;-63
2022/01/27 08:53:44;;;;;;;52.17;15.75;;;;;;;;;;5024850;27;105866;-65
2022/01/27 08:56:13;;;;;;;47.63;13.98;;;;;;;;;;5028082;27;107307;-65
2022/01/27 08:58:40;;;;;;;47.65;15.63;;;;;;;;;;5024297;27;106083;-64
2022/01/27 09:01:06;;;;;;;38.88;13.10;;;;;;;;;;5026776;27;106350;-67
2022/01/27 09:03:34;;;;;;;38.15;13.90;;;;;;;;;;5029715;27;106248;-64
2022/01/27 09:06:01;;;;;;;38.50;14.40;;;;;;;;;;5033282;27;106656;-64
2022/01/27 09:08:29;;;;;;;42.92;13.75;;;;;;;;;;5027842;27;107641;-62
2022/01/27 09:10:55;;;;;;;44.22;14.25;;;;;;;;;;5026554;27;106424;-65
2022/01/27 09:13:22;;;;;;;45.17;13.70;;;;;;;;;;5014474;27;107444;-64
2022/01/27 09:15:49;;;;;;;40.35;14.10;;;;;;;;;;5022922;27;108450;-64
2022/01/27 09:18:16;;;;;;;36.65;12.88;;;;;;;;;;5020587;27;105775;-66
2022/01/27 09:20:43;;;;;;;37.60;13.93;;;;;;;;;;5024123;27;107213;-64
2022/01/27 09:23:14;;;;;;;41.83;14.45;;;;;;;;;;5021680;27;107506;-64
2022/01/27 09:25:46;;;;;;;48.58;15.32;;;;;;;;;;5023989;27;106144;-64
2022/01/27 09:28:13;;;;;;;43.15;16.52;;;;;;;;;;5026337;27;107042;-67
2022/01/27 09:30:41;;;;;;;51.70;15.98;;;;;;;;;;5026487;27;108876;-67
2022/01/27 09:33:07;;;;;;;42.20;16.20;;;;;;;;;;5028488;27;106981;-67
2022/01/27 09:35:34;;;;;;;45.10;15.35;;;;;;;;;;5025313;27;107526;-66
2022/01/27 09:38:00;;;;;;;46.97;16.13;;;;;;;;;;5027963;27;106859;-64
2022/01/27 09:40:28;;;;;;;47.53;16.63;;;;;;;;;;5025510;27;106139;-64
2022/01/27 09:42:55;;;;;;;43.65;17.45;;;;;;;;;;5027732;27;106909;-65
2022/01/27 09:45:23;;;;;;;45.47;17.13;;;;;;;;;;5027589;27;106933;-67
2022/01/27 09:47:55;;;;;;;48.40;18.65;;;;;;;;;;5028102;27;106808;-68
2022/01/27 09:50:34;;;;;;;49.83;18.58;;;;;;;;;;5026129;27;107406;-66
2022/01/27 09:53:01;;;;;;;35.72;16.08;;;;;;;;;;5026159;27;107097;-64
2022/01/27 09:55:27;;;;;;;53.05;17.67;;;;;;;;;;5027889;27;107583;-65
2022/01/27 09:58:03;;;;;;;50.22;18.65;;;;;;;;;;5021508;27;107212;-69
2022/01/27 10:00:30;;;;;;;42.92;16.88;;;;;;;;;;5018908;27;110005;-64
2022/01/27 10:03:00;;;;;;;55.38;19.23;;;;;;;;;;5020866;27;107964;-64
2022/01/27 10:05:27;;;;;;;45.15;17.25;;;;;;;;;;5021772;27;106564;-64
2022/01/27 10:08:00;;;;;;;42.00;17.45;;;;;;;;;;5026443;27;106856;-63
2022/01/27 10:10:26;;;;;;;58.38;19.05;;;;;;;;;;5021418;27;106364;-64
2022/01/27 10:12:55;;;;;;;43.83;17.80;;;;;;;;;;5026628;27;106754;-66
2022/01/27 10:15:22;;;;;;;54.17;18.50;;;;;;;;;;5025048;27;106734;-64
2022/01/27 10:18:08;;;;;;;47.47;18.98;;;;;;;;;;5024336;27;107086;-64
2022/01/27 10:20:35;;;;;;;50.33;18.80;;;;;;;;;;5020718;27;105809;-63
2022/01/27 10:23:07;;;;;;;52.00;18.83;;;;;;;;;;5025743;27;107280;-65
2022/01/27 10:25:34;;;;;;;41.40;15.63;;;;;;;;;;5020845;27;107583;-63
2022/01/27 10:28:11;;;;;;;52.40;18.13;;;;;;;;;;5021963;27;107049;-63
2022/01/27 10:30:38;;;;;;;53.85;18.95;;;;;;;;;;5021155;27;109523;-64
2022/01/27 10:33:05;;;;;;;53.47;18.73;;;;;;;;;;5023844;27;107347;-64
2022/01/27 10:35:32;;;;;;;55.97;17.38;;;;;;;;;;5031041;27;106717;-64
2022/01/27 10:38:04;;;;;;;53.53;17.25;;;;;;;;;;5026169;27;106954;-64
2022/01/27 10:40:43;;;;;;;51.50;16.63;;;;;;;;;;5023006;27;106175;-65
2022/01/27 10:43:17;;;;;;;52.65;16.95;;;;;;;;;;5021841;27;110176;-65
2022/01/27 10:46:07;;;;;;;46.10;16.52;;;;;;;;;;5025642;27;107812;-65
2022/01/27 10:48:39;;;;;;;45.45;17.08;;;;;;;;;;5028136;27;106077;-65
2022/01/27 10:51:15;;;;;;;50.85;16.20;;;;;;;;;;5021473;27;106536;-64
2022/01/27 10:53:48;;;;;;;50.15;15.93;;;;;;;;;;5021602;27;108104;-64
2022/01/27 10:56:20;;;;;;;47.25;15.25;;;;;;;;;;5027634;27;106074;-64
2022/01/27 10:58:47;;;;;;;41.30;15.32;;;;;;;;;;5024912;27;108332;-65
2022/01/27 11:01:20;;;;;;;42.30;15.55;;;;;;;;;;5019322;27;108542;-63
2022/01/27 11:03:51;;;;;;;49.28;15.80;;;;;;;;;;5018871;27;108795;-64
2022/01/27 11:06:24;;;;;;;52.95;16.13;;;;;;;;;;5025239;27;107679;-64
2022/01/27 11:08:54;;;;;;;36.50;14.35;;;;;;;;;;5025861;27;107202;-64
2022/01/27 11:11:24;;;;;;;45.90;15.27;;;;;;;;;;5022524;27;107270;-65
2022/01/27 11:13:51;;;;;;;43.75;15.13;;;;;;;;;;5022546;27;107590;-65
2022/01/27 11:16:22;;;;;;;42.38;14.95;;;;;;;;;;5029022;27;107657;-64
2022/01/27 11:18:48;;;;;;;42.40;14.45;;;;;;;;;;5032771;27;107585;-64
2022/01/27 11:21:34;;;;;;;48.50;15.45;;;;;;;;;;5024033;27;105974;-65
2022/01/27 11:24:16;;;;;;;41.20;13.77;;;;;;;;;;5027284;27;107414;-63
2022/01/27 11:26:44;;;;;;;48.88;14.45;;;;;;;;;;5026855;27;106292;-63
2022/01/27 11:29:12;;;;;;;39.22;14.48;;;;;;;;;;5025412;27;106230;-64
2022/01/27 11:31:57;;;;;;;44.53;14.00;;;;;;;;;;5030647;27;106357;-64
2022/01/27 11:34:42;;;;;;;45.28;14.85;;;;;;;;;;5026605;27;106143;-64
2022/01/27 11:37:08;;;;;;;36.15;12.15;;;;;;;;;;5031325;27;107094;-64
2022/01/27 11:39:55;;;;;;;40.90;13.77;;;;;;;;;;5014109;27;111524;-66
2022/01/27 11:42:42;;;;;;;40.08;12.80;;;;;;;;;;5030437;27;105630;-64
2022/01/27 11:45:20;;;;;;;39.45;12.85;;;;;;;;;;5030368;27;107277;-65
2022/01/27 11:47:48;;;;;;;38.25;13.18;;;;;;;;;;5025463;27;106879;-64
2022/01/27 11:50:31;;;;;;;43.00;13.35;;;;;;;;;;5030581;27;107139;-64
2022/01/27 11:52:57;;;;;;;37.53;11.80;;;;;;;;;;5024325;27;107463;-64
2022/01/27 11:55:24;;;;;;;38.17;13.23;;;;;;;;;;5022251;27;105955;-64
2022/01/27 11:57:51;;;;;;;36.20;12.68;;;;;;;;;;5022633;27;107089;-63
2022/01/27 12:00:19;;;;;;;32.95;12.43;;;;;;;;;;5020568;27;109229;-63
2022/01/27 12:03:01;;;;;;;42.38;12.30;;;;;;;;;;5021572;27;106538;-64
2022/01/27 12:05:32;;;;;;;38.47;11.80;;;;;;;;;;5029368;27;107446;-63
2022/01/27 12:08:14;;;;;;;28.05;10.13;;;;;;;;;;5028280;27;106827;-63
2022/01/27 12:10:54;;;;;;;30.17;10.00;;;;;;;;;;5029477;27;106663;-63
2022/01/27 12:13:44;;;;;;;49.17;10.65;;;;;;;;;;5029370;27;107517;-63
2022/01/27 12:16:11;;;;;;;41.58;10.82;;;;;;;;;;5024347;27;105850;-65
2022/01/27 12:18:38;;;;;;;35.30;10.05;;;;;;;;;;5029012;27;107047;-65
2022/01/27 12:21:23;;;;;;;36.83;9.85;;;;;;;;;;5020934;27;106288;-64
2022/01/27 12:24:08;;;;;;;32.58;7.70;;;;;;;;;;5025468;27;106007;-63
2022/01/27 12:26:49;;;;;;;26.30;7.72;;;;;;;;;;5024030;27;106739;-63
2022/01/27 12:29:25;;;;;;;27.13;8.38;;;;;;;;;;5022438;27;107358;-63
2022/01/27 12:31:52;;;;;;;23.10;7.15;;;;;;;;;;5028959;27;106479;-62
2022/01/27 12:34:19;;;;;;;19.45;7.07;;;;;;;;;;5025559;27;108405;-63
2022/01/27 12:36:52;;;;;;;28.45;7.70;;;;;;;;;;5026231;27;106415;-63
2022/01/27 12:39:20;;;;;;;22.67;7.10;;;;;;;;;;5026615;27;106898;-63
2022/01/27 12:41:48;;;;;;;26.70;7.22;;;;;;;;;;5025242;27;107239;-63
2022/01/27 12:44:14;;;;;;;20.42;6.63;;;;;;;;;;5023444;27;106708;-63
2022/01/27 12:47:00;;;;;;;23.52;6.80;;;;;;;;;;5021694;27;105901;-64
2022/01/27 12:49:36;;;;;;;20.23;6.18;;;;;;;;;;5030373;27;106335;-64
2022/01/27 12:52:06;;;;;;;24.48;6.93;;;;;;;;;;5030843;27;106002;-64
2022/01/27 12:54:33;;;;;;;24.30;7.28;;;;;;;;;;5029785;27;106227;-62
2022/01/27 12:56:59;;;;;;;15.55;5.38;;;;;;;;;;5024499;27;106095;-64
2022/01/27 12:59:31;;;;;;;25.30;7.07;;;;;;;;;;5027952;27;106841;-63
2022/01/27 13:02:02;;;;;;;17.35;5.57;;;;;;;;;;5028427;27;107235;-62
2022/01/27 13:04:29;;;;;;;17.73;5.57;;;;;;;;;;5022448;27;106458;-63
2022/01/27 13:06:56;;;;;;;17.90;5.22;;;;;;;;;;5015643;27;105975;-63
2022/01/27 13:09:23;;;;;;;21.30;5.38;;;;;;;;;;5026022;27;106752;-62
2022/01/27 13:11:52;;;;;;;17.98;5.32;;;;;;;;;;5029856;27;106449;-63
2022/01/27 13:14:19;;;;;;;16.58;5.55;;;;;;;;;;5025956;27;109556;-63
2022/01/27 13:16:51;;;;;;;13.57;4.38;;;;;;;;;;5029399;27;106125;-63
2022/01/27 13:19:28;;;;;;;20.20;4.88;;;;;;;;;;5027989;27;106666;-63
2022/01/27 13:22:02;;;;;;;20.98;4.32;;;;;;;;;;5028220;27;106929;-62
2022/01/27 13:24:46;;;;;;;18.67;4.88;;;;;;;;;;5028941;27;106520;-62
2022/01/27 13:27:13;;;;;;;17.48;4.63;;;;;;;;;;5025793;27;107245;-62
2022/01/27 13:29:45;;;;;;;13.63;4.20;;;;;;;;;;5028016;27;107434;-62
2022/01/27 13:32:12;;;;;;;13.98;4.35;;;;;;;;;;5028107;27;106177;-65
2022/01/27 13:34:43;;;;;;;16.60;4.70;;;;;;;;;;5030907;27;106847;-63
2022/01/27 13:37:09;;;;;;;18.17;4.60;;;;;;;;;;5026723;27;105728;-62
2022/01/27 13:41:16;;;;;;;14.55;3.65;;;;;;;;;;5030538;27;107218;-64
2022/01/27 13:42:33;;;;;;;21.92;4.00;;;;;;;;;;5026965;27;106583;-65
2022/01/27 13:45:01;;;;;;;16.38;4.18;;;;;;;;;;5029128;27;106870;-64
2022/01/27 13:47:29;;;;;;;14.52;4.25;;;;;;;;;;5028534;27;106152;-62
2022/01/27 13:50:08;;;;;;;15.90;3.95;;;;;;;;;;5011966;27;107518;-64
2022/01/27 13:52:39;;;;;;;15.40;3.45;;;;;;;;;;5025328;27;106562;-64
2022/01/27 13:55:07;;;;;;;19.00;3.85;;;;;;;;;;5029575;27;106024;-63
2022/01/27 13:57:46;;;;;;;15.80;3.42;;;;;;;;;;5030846;27;108068;-63
2022/01/27 14:00:17;;;;;;;12.25;3.22;;;;;;;;;;5026707;27;107106;-63
2022/01/27 14:02:45;;;;;;;19.45;4.10;;;;;;;;;;5025941;27;106278;-63
2022/01/27 14:05:13;;;;;;;13.23;3.35;;;;;;;;;;5028411;27;105712;-64
2022/01/27 14:07:40;;;;;;;16.75;3.85;;;;;;;;;;5028854;27;106999;-64
2022/01/27 14:10:25;;;;;;;15.98;3.72;;;;;;;;;;5027665;27;106362;-64
2022/01/27 14:12:59;;;;;;;13.88;3.40;;;;;;;;;;5022825;27;107044;-65
2022/01/27 14:15:30;;;;;;;11.43;3.10;;;;;;;;;;5020900;27;107233;-66
2022/01/27 14:17:59;;;;;;;15.93;3.50;;;;;;;;;;5026114;27;107223;-64
2022/01/27 14:20:25;;;;;;;16.42;3.38;;;;;;;;;;5026893;27;108127;-65
2022/01/27 14:23:14;;;;;;;9.07;3.15;;;;;;;;;;5024115;27;108717;-64
2022/01/27 14:25:50;;;;;;;14.65;3.08;;;;;;;;;;5024364;27;106132;-64
2022/01/27 14:28:17;;;;;;;8.77;2.80;;;;;;;;;;5022883;27;106426;-64
2022/01/27 14:30:44;;;;;;;12.10;2.70;;;;;;;;;;5023596;27;107695;-64
2022/01/27 14:33:11;;;;;;;19.10;3.22;;;;;;;;;;5025382;27;108586;-65
2022/01/27 14:35:38;;;;;;;14.98;2.92;;;;;;;;;;5026432;27;107591;-65
2022/01/27 14:38:04;;;;;;;13.38;3.03;;;;;;;;;;5025559;27;107432;-64
2022/01/27 14:40:32;;;;;;;14.23;2.88;;;;;;;;;;5017761;27;106159;-65
2022/01/27 14:43:01;;;;;;;13.95;3.05;;;;;;;;;;5028334;27;106042;-65
2022/01/27 14:45:29;;;;;;;19.75;4.22;;;;;;;;;;5026883;27;107112;-64
2022/01/27 14:48:02;;;;;;;13.95;3.58;;;;;;;;;;5019138;27;106912;-65
2022/01/27 14:50:30;;;;;;;17.35;3.10;;;;;;;;;;5026698;27;106311;-65
2022/01/27 14:52:57;;;;;;;15.90;2.85;;;;;;;;;;5021118;27;106447;-64
2022/01/27 14:55:25;;;;;;;16.17;3.15;;;;;;;;;;5025635;27;106502;-64
2022/01/27 14:57:51;;;;;;;18.20;2.20;;;;;;;;;;5016969;27;106657;-64
2022/01/27 15:00:18;;;;;;;14.93;2.58;;;;;;;;;;5028495;27;106571;-64
2022/01/27 15:02:44;;;;;;;29.02;3.10;;;;;;;;;;5021951;27;106682;-64